createdAt,value
2019-03-02T00:00:03.853Z,20.30
2019-03-02T00:01:03.851Z,19.40
2019-03-02T00:02:03.832Z,19.60
2019-03-02T00:03:03.826Z,19.30
2019-03-02T00:04:09.531Z,19.70
2019-03-02T00:05:03.841Z,19.40
2019-03-02T00:06:04.007Z,20.00
2019-03-02T00:07:03.798Z,18.50
2019-03-02T00:08:03.791Z,19.80
2019-03-02T00:09:03.987Z,20.00
2019-03-02T00:10:06.560Z,20.80
2019-03-02T00:11:03.771Z,19.70
2019-03-02T00:12:03.773Z,19.30
2019-03-02T00:13:07.080Z,19.10
2019-03-02T00:14:03.766Z,20.30
2019-03-02T00:15:03.768Z,20.80
2019-03-02T00:16:04.278Z,18.60
2019-03-02T00:17:03.766Z,19.40
2019-03-02T00:18:03.740Z,18.10
2019-03-02T00:19:06.770Z,19.90
2019-03-02T00:20:03.726Z,18.80
2019-03-02T00:21:03.727Z,19.50
2019-03-02T00:22:06.825Z,19.30
2019-03-02T00:23:03.916Z,18.60
2019-03-02T00:24:03.708Z,19.60
2019-03-02T00:25:03.685Z,19.40
2019-03-02T00:26:06.322Z,19.60
2019-03-02T00:27:03.677Z,19.70
2019-03-02T00:28:03.893Z,19.70
2019-03-02T00:29:03.699Z,20.20
2019-03-02T00:30:03.671Z,20.30
2019-03-02T00:31:03.656Z,20.30
2019-03-02T00:32:05.939Z,20.30
2019-03-02T00:33:03.651Z,20.60
2019-03-02T00:34:03.643Z,20.70
2019-03-02T00:35:07.125Z,20.80
2019-03-02T00:36:03.835Z,21.00
2019-03-02T00:37:03.620Z,21.20
2019-03-02T00:38:04.844Z,22.20
2019-03-02T00:39:03.600Z,23.20
2019-03-02T00:40:04.716Z,22.90
2019-03-02T00:41:03.712Z,22.60
2019-03-02T00:42:03.587Z,23.50
2019-03-02T00:43:03.570Z,23.00
2019-03-02T00:44:04.010Z,23.00
2019-03-02T00:45:03.573Z,21.70
2019-03-02T00:46:03.571Z,22.80
2019-03-02T00:47:03.561Z,23.50
2019-03-02T00:48:03.545Z,22.80
2019-03-02T00:49:03.535Z,22.90
2019-03-02T00:50:03.528Z,23.00
2019-03-02T00:51:03.724Z,23.40
2019-03-02T00:52:03.515Z,23.30
2019-03-02T00:53:03.708Z,23.40
2019-03-02T00:54:03.715Z,23.70
2019-03-02T00:55:03.506Z,23.10
2019-03-02T00:56:04.160Z,23.80
2019-03-02T00:57:03.483Z,24.20
2019-03-02T00:58:03.514Z,24.50
2019-03-02T00:59:03.899Z,24.10
2019-03-02T01:00:03.670Z,24.30
2019-03-02T01:01:03.464Z,25.50
2019-03-02T01:02:04.349Z,26.10
2019-03-02T01:03:03.655Z,26.60
2019-03-02T01:04:03.436Z,26.30
2019-03-02T01:05:03.436Z,27.40
2019-03-02T01:06:03.426Z,27.50
2019-03-02T01:07:03.435Z,27.40
2019-03-02T01:08:03.412Z,27.60
2019-03-02T01:09:03.421Z,27.60
2019-03-02T01:10:03.601Z,27.70
2019-03-02T01:11:03.392Z,30.10
2019-03-02T01:12:05.866Z,29.70
2019-03-02T01:13:03.383Z,30.00
2019-03-02T01:14:03.379Z,28.20
2019-03-02T01:15:05.157Z,28.80
2019-03-02T01:16:03.380Z,29.50
2019-03-02T01:17:03.572Z,29.20
2019-03-02T01:18:03.738Z,30.40
2019-03-02T01:19:03.352Z,31.00
2019-03-02T01:20:03.548Z,31.00
2019-03-02T01:21:03.919Z,29.40
2019-03-02T01:22:03.335Z,29.80
2019-03-02T01:23:03.532Z,29.60
2019-03-02T01:24:04.488Z,31.10
2019-03-02T01:25:03.321Z,29.60
2019-03-02T01:26:03.534Z,30.40
2019-03-02T01:27:03.306Z,30.80
2019-03-02T01:28:06.583Z,30.30
2019-03-02T01:29:03.280Z,29.50
2019-03-02T01:30:03.291Z,32.20
2019-03-02T01:31:05.137Z,32.30
2019-03-02T01:32:03.258Z,33.00
2019-03-02T01:33:03.277Z,33.00
2019-03-02T01:34:04.752Z,33.10
2019-03-02T01:35:03.265Z,31.50
2019-03-02T01:36:03.234Z,32.20
2019-03-02T01:37:04.809Z,31.80
2019-03-02T01:38:03.237Z,31.20
2019-03-02T01:39:03.423Z,33.00
2019-03-02T01:40:04.895Z,32.20
2019-03-02T01:41:03.414Z,31.00
2019-03-02T01:42:03.409Z,31.00
2019-03-02T01:43:04.886Z,31.10
2019-03-02T01:44:03.202Z,31.10
2019-03-02T01:45:03.190Z,32.40
2019-03-02T01:46:04.524Z,31.40
2019-03-02T01:47:03.401Z,33.10
2019-03-02T01:48:03.373Z,32.20
2019-03-02T01:49:03.148Z,32.10
2019-03-02T01:50:03.155Z,32.20
2019-03-02T01:51:03.367Z,33.80
2019-03-02T01:52:03.166Z,32.80
2019-03-02T01:53:03.147Z,33.40
2019-03-02T01:54:03.140Z,32.70
2019-03-02T01:55:03.115Z,32.10
2019-03-02T01:56:06.159Z,32.90
2019-03-02T01:57:03.108Z,33.00
2019-03-02T01:58:03.102Z,34.60
2019-03-02T01:59:03.996Z,32.90
2019-03-02T02:00:03.097Z,33.90
2019-03-02T02:01:03.080Z,33.90
2019-03-02T02:02:03.090Z,32.90
2019-03-02T02:03:03.072Z,34.10
2019-03-02T02:04:03.093Z,34.00
2019-03-02T02:05:03.058Z,35.80
2019-03-02T02:06:03.717Z,34.80
2019-03-02T02:07:03.265Z,37.40
2019-03-02T02:08:03.044Z,36.40
2019-03-02T02:09:05.633Z,35.40
2019-03-02T02:10:03.034Z,34.20
2019-03-02T02:11:03.221Z,35.30
2019-03-02T02:12:03.025Z,33.90
2019-03-02T02:13:06.129Z,34.90
2019-03-02T02:14:03.215Z,34.80
2019-03-02T02:15:03.007Z,34.00
2019-03-02T02:16:05.689Z,33.60
2019-03-02T02:17:02.976Z,33.20
2019-03-02T02:18:03.178Z,35.40
2019-03-02T02:19:03.373Z,36.40
2019-03-02T02:20:02.961Z,34.70
2019-03-02T02:21:02.968Z,33.10
2019-03-02T02:22:03.165Z,34.00
2019-03-02T02:23:02.949Z,34.40
2019-03-02T02:24:02.934Z,35.60
2019-03-02T02:25:02.925Z,36.00
2019-03-02T02:26:02.925Z,37.50
2019-03-02T02:27:02.931Z,34.10
2019-03-02T02:28:03.117Z,33.90
2019-03-02T02:29:04.495Z,34.10
2019-03-02T02:30:02.917Z,38.40
2019-03-02T02:31:06.376Z,34.00
2019-03-02T02:32:02.892Z,34.50
2019-03-02T02:33:05.617Z,33.70
2019-03-02T02:34:02.874Z,37.90
2019-03-02T02:35:03.101Z,39.50
2019-03-02T02:36:03.073Z,38.80
2019-03-02T02:37:02.851Z,38.40
2019-03-02T02:38:02.854Z,37.90
2019-03-02T02:39:02.842Z,36.80
2019-03-02T02:40:02.845Z,36.60
2019-03-02T02:41:02.837Z,35.90
2019-03-02T02:42:05.305Z,37.20
2019-03-02T02:43:02.829Z,34.00
2019-03-02T02:44:03.025Z,33.30
2019-03-02T02:45:03.015Z,34.10
2019-03-02T02:46:02.840Z,35.40
2019-03-02T02:47:07.244Z,33.10
2019-03-02T02:48:02.801Z,34.60
2019-03-02T02:49:05.419Z,35.20
2019-03-02T02:50:02.788Z,36.10
2019-03-02T02:51:04.287Z,37.00
2019-03-02T02:52:02.777Z,34.70
2019-03-02T02:53:06.980Z,36.00
2019-03-02T02:54:02.744Z,36.20
2019-03-02T02:55:04.313Z,38.20
2019-03-02T02:56:02.791Z,34.00
2019-03-02T02:57:02.736Z,35.80
2019-03-02T02:58:02.765Z,37.00
2019-03-02T02:59:02.723Z,39.00
2019-03-02T03:00:02.915Z,40.50
2019-03-02T03:01:02.714Z,42.00
2019-03-02T03:02:06.427Z,39.90
2019-03-02T03:03:02.714Z,38.70
2019-03-02T03:04:02.711Z,38.90
2019-03-02T03:05:02.686Z,37.80
2019-03-02T03:06:02.672Z,37.60
2019-03-02T03:07:07.327Z,40.00
2019-03-02T03:08:02.662Z,38.10
2019-03-02T03:09:05.145Z,36.60
2019-03-02T03:10:02.654Z,38.00
2019-03-02T03:11:06.644Z,38.60
2019-03-02T03:12:02.638Z,40.60
2019-03-02T03:13:04.207Z,39.90
2019-03-02T03:14:02.633Z,39.80
2019-03-02T03:15:02.628Z,42.30
2019-03-02T03:16:02.635Z,37.70
2019-03-02T03:17:02.616Z,37.50
2019-03-02T03:18:07.300Z,38.30
2019-03-02T03:19:02.590Z,42.40
2019-03-02T03:20:05.502Z,40.50
2019-03-02T03:21:02.603Z,39.70
2019-03-02T03:22:07.346Z,42.60
2019-03-02T03:23:02.591Z,40.30
2019-03-02T03:24:03.802Z,42.70
2019-03-02T03:25:04.144Z,41.90
2019-03-02T03:26:02.766Z,40.70
2019-03-02T03:27:02.752Z,42.70
2019-03-02T03:28:02.548Z,40.80
2019-03-02T03:29:05.192Z,45.70
2019-03-02T03:30:02.740Z,41.70
2019-03-02T03:31:02.524Z,42.70
2019-03-02T03:32:09.203Z,41.60
2019-03-02T03:33:02.553Z,42.80
2019-03-02T03:34:02.514Z,41.10
2019-03-02T03:35:15.671Z,41.30
2019-03-02T03:36:02.496Z,44.20
2019-03-02T03:37:02.482Z,44.40
2019-03-02T03:38:02.574Z,41.80
2019-03-02T03:39:06.750Z,45.30
2019-03-02T03:40:02.479Z,44.90
2019-03-02T03:41:05.356Z,46.80
2019-03-02T03:42:02.452Z,44.30
2019-03-02T03:43:03.535Z,45.70
2019-03-02T03:44:02.451Z,43.10
2019-03-02T03:45:04.394Z,46.10
2019-03-02T03:46:02.433Z,45.90
2019-03-02T03:47:02.451Z,47.70
2019-03-02T03:48:02.641Z,46.90
2019-03-02T03:49:02.423Z,44.70
2019-03-02T03:50:02.405Z,45.50
2019-03-02T03:51:02.416Z,48.20
2019-03-02T03:52:08.432Z,44.60
2019-03-02T03:53:02.397Z,46.40
2019-03-02T03:54:07.132Z,47.80
2019-03-02T03:55:02.390Z,46.20
2019-03-02T03:56:04.159Z,46.90
2019-03-02T03:57:02.367Z,45.20
2019-03-02T03:58:02.739Z,46.70
2019-03-02T03:59:02.574Z,49.10
2019-03-02T04:00:02.351Z,47.80
2019-03-02T04:01:02.358Z,47.50
2019-03-02T04:02:02.341Z,48.70
2019-03-02T04:03:02.338Z,45.30
2019-03-02T04:04:02.343Z,47.80
2019-03-02T04:05:07.192Z,47.90
2019-03-02T04:06:02.315Z,48.60
2019-03-02T04:07:06.307Z,47.10
2019-03-02T04:08:02.301Z,47.90
2019-03-02T04:09:03.128Z,48.40
2019-03-02T04:10:02.505Z,47.90
2019-03-02T04:11:04.567Z,49.20
2019-03-02T04:12:02.279Z,47.40
2019-03-02T04:13:04.936Z,46.20
2019-03-02T04:14:02.275Z,48.30
2019-03-02T04:15:03.124Z,49.60
2019-03-02T04:16:02.466Z,50.40
2019-03-02T04:17:02.249Z,49.10
2019-03-02T04:18:02.241Z,45.90
2019-03-02T04:19:02.456Z,51.90
2019-03-02T04:20:02.260Z,50.80
2019-03-02T04:21:02.234Z,50.70
2019-03-02T04:22:06.484Z,48.90
2019-03-02T04:23:02.423Z,52.50
2019-03-02T04:24:03.241Z,52.00
2019-03-02T04:25:02.398Z,52.30
2019-03-02T04:26:02.400Z,52.00
2019-03-02T04:27:02.390Z,53.50
2019-03-02T04:28:02.189Z,52.80
2019-03-02T04:29:09.052Z,50.90
2019-03-02T04:30:02.168Z,51.50
2019-03-02T04:31:04.736Z,46.30
2019-03-02T04:32:02.361Z,52.10
2019-03-02T04:33:06.075Z,50.60
2019-03-02T04:34:02.147Z,56.30
2019-03-02T04:35:02.138Z,54.70
2019-03-02T04:36:02.168Z,53.30
2019-03-02T04:37:02.131Z,53.30
2019-03-02T04:38:02.340Z,54.00
2019-03-02T04:39:02.120Z,54.20
2019-03-02T04:40:02.341Z,57.30
2019-03-02T04:41:04.058Z,61.00
2019-03-02T04:42:02.298Z,53.80
2019-03-02T04:43:02.310Z,58.20
2019-03-02T04:44:02.101Z,57.90
2019-03-02T04:45:04.997Z,60.60
2019-03-02T04:46:02.285Z,64.30
2019-03-02T04:47:02.097Z,61.40
2019-03-02T04:48:03.338Z,60.60
2019-03-02T04:49:02.048Z,62.70
2019-03-02T04:50:02.054Z,61.00
2019-03-02T04:51:02.651Z,64.00
2019-03-02T04:52:02.241Z,62.70
2019-03-02T04:53:02.039Z,63.80
2019-03-02T04:54:03.026Z,59.50
2019-03-02T04:55:02.025Z,64.20
2019-03-02T04:56:02.008Z,65.00
2019-03-02T04:57:02.025Z,68.60
2019-03-02T04:58:02.203Z,66.00
2019-03-02T04:59:03.112Z,64.60
2019-03-02T05:00:01.991Z,67.70
2019-03-02T05:01:03.933Z,63.30
2019-03-02T05:02:01.976Z,66.10
2019-03-02T05:03:01.991Z,69.40
2019-03-02T05:04:01.979Z,68.60
2019-03-02T05:05:04.820Z,67.20
2019-03-02T05:06:01.972Z,70.50
2019-03-02T05:07:01.946Z,65.40
2019-03-02T05:08:04.992Z,71.90
2019-03-02T05:09:02.128Z,77.60
2019-03-02T05:10:01.946Z,69.20
2019-03-02T05:11:03.570Z,75.60
2019-03-02T05:12:01.918Z,73.90
2019-03-02T05:13:01.913Z,75.60
2019-03-02T05:14:04.308Z,75.10
2019-03-02T05:15:01.914Z,76.10
2019-03-02T05:16:01.912Z,73.10
2019-03-02T05:17:03.502Z,80.00
2019-03-02T05:18:01.887Z,80.40
2019-03-02T05:19:01.879Z,81.20
2019-03-02T05:20:04.805Z,81.30
2019-03-02T05:21:01.881Z,78.80
2019-03-02T05:22:01.853Z,82.40
2019-03-02T05:23:01.863Z,83.20
2019-03-02T05:24:03.384Z,85.30
2019-03-02T05:25:01.842Z,81.20
2019-03-02T05:26:01.827Z,86.60
2019-03-02T05:27:01.822Z,82.50
2019-03-02T05:28:03.758Z,83.90
2019-03-02T05:29:02.012Z,84.50
2019-03-02T05:30:01.822Z,84.60
2019-03-02T05:31:02.656Z,90.80
2019-03-02T05:32:01.800Z,85.80
2019-03-02T05:33:01.786Z,93.20
2019-03-02T05:34:04.495Z,98.20
2019-03-02T05:35:01.773Z,91.50
2019-03-02T05:36:01.775Z,99.20
2019-03-02T05:37:02.923Z,101.80
2019-03-02T05:38:01.767Z,115.10
2019-03-02T05:39:01.958Z,117.40
2019-03-02T05:40:01.742Z,122.80
2019-03-02T05:41:02.687Z,130.20
2019-03-02T05:42:01.735Z,133.90
2019-03-02T05:43:01.735Z,138.50
2019-03-02T05:44:01.722Z,144.20
2019-03-02T05:45:01.716Z,146.20
2019-03-02T05:46:01.717Z,145.80
2019-03-02T05:47:02.800Z,162.70
2019-03-02T05:48:04.870Z,157.60
2019-03-02T05:49:01.699Z,160.60
2019-03-02T05:50:01.692Z,159.90
2019-03-02T05:51:03.814Z,150.10
2019-03-02T05:52:01.670Z,152.00
2019-03-02T05:53:01.668Z,153.50
2019-03-02T05:54:02.588Z,156.10
2019-03-02T05:55:01.880Z,144.30
2019-03-02T05:56:01.643Z,155.10
2019-03-02T05:57:04.123Z,149.00
2019-03-02T05:58:01.634Z,150.50
2019-03-02T05:59:01.636Z,143.50
2019-03-02T06:00:03.013Z,141.10
2019-03-02T06:01:01.629Z,138.50
2019-03-02T06:02:01.622Z,141.60
2019-03-02T06:03:01.603Z,153.80
2019-03-02T06:04:01.596Z,151.20
2019-03-02T06:05:01.592Z,156.10
2019-03-02T06:06:01.593Z,150.30
2019-03-02T06:07:01.576Z,151.90
2019-03-02T06:08:01.577Z,160.90
2019-03-02T06:09:01.564Z,153.70
2019-03-02T06:10:01.570Z,154.30
2019-03-02T06:11:01.981Z,153.50
2019-03-02T06:12:01.559Z,150.40
2019-03-02T06:13:01.538Z,154.90
2019-03-02T06:14:01.549Z,147.70
2019-03-02T06:15:04.067Z,142.90
2019-03-02T06:16:01.533Z,142.70
2019-03-02T06:17:01.531Z,140.20
2019-03-02T06:18:04.497Z,136.10
2019-03-02T06:19:01.522Z,132.50
2019-03-02T06:20:01.516Z,120.90
2019-03-02T06:21:01.486Z,120.60
2019-03-02T06:22:01.503Z,118.40
2019-03-02T06:23:01.685Z,115.60
2019-03-02T06:24:05.046Z,116.20
2019-03-02T06:25:01.475Z,114.30
2019-03-02T06:26:01.468Z,110.40
2019-03-02T06:27:01.450Z,106.50
2019-03-02T06:28:01.452Z,106.90
2019-03-02T06:29:01.436Z,106.20
2019-03-02T06:30:04.814Z,97.30
2019-03-02T06:31:01.426Z,95.90
2019-03-02T06:32:01.417Z,106.90
2019-03-02T06:33:01.422Z,100.30
2019-03-02T06:34:01.418Z,97.90
2019-03-02T06:35:01.408Z,98.60
2019-03-02T06:36:04.936Z,90.90
2019-03-02T06:37:01.385Z,97.50
2019-03-02T06:38:01.383Z,93.80
2019-03-02T06:39:03.935Z,92.80
2019-03-02T06:40:01.376Z,90.80
2019-03-02T06:41:01.367Z,100.80
2019-03-02T06:42:01.356Z,100.70
2019-03-02T06:43:01.357Z,90.90
2019-03-02T06:44:01.364Z,95.00
2019-03-02T06:45:01.337Z,95.40
2019-03-02T06:46:01.352Z,87.10
2019-03-02T06:47:01.353Z,94.10
2019-03-02T06:48:01.332Z,92.00
2019-03-02T06:49:01.318Z,92.60
2019-03-02T06:50:01.534Z,94.00
2019-03-02T06:51:02.402Z,91.50
2019-03-02T06:52:01.291Z,92.60
2019-03-02T06:53:01.624Z,94.30
2019-03-02T06:54:01.280Z,92.50
2019-03-02T06:55:01.290Z,96.80
2019-03-02T06:56:01.861Z,91.30
2019-03-02T06:57:01.270Z,90.10
2019-03-02T06:58:01.266Z,94.30
2019-03-02T06:59:04.175Z,91.60
2019-03-02T07:00:01.460Z,88.60
2019-03-02T07:01:01.241Z,94.60
2019-03-02T07:02:01.238Z,93.00
2019-03-02T07:03:01.238Z,90.60
2019-03-02T07:04:01.230Z,91.60
2019-03-02T07:05:01.227Z,95.30
2019-03-02T07:06:01.225Z,90.00
2019-03-02T07:07:01.230Z,91.30
2019-03-02T07:08:01.197Z,98.70
2019-03-02T07:09:01.208Z,95.40
2019-03-02T07:10:01.186Z,95.00
2019-03-02T07:11:01.184Z,94.30
2019-03-02T07:12:01.201Z,88.70
2019-03-02T07:13:01.164Z,91.50
2019-03-02T07:14:01.156Z,97.60
2019-03-02T07:15:01.161Z,86.20
2019-03-02T07:16:01.148Z,88.10
2019-03-02T07:17:01.145Z,91.50
2019-03-02T07:18:01.983Z,98.50
2019-03-02T07:19:01.143Z,88.90
2019-03-02T07:20:01.129Z,87.70
2019-03-02T07:21:03.286Z,92.40
2019-03-02T07:22:01.140Z,89.50
2019-03-02T07:23:01.138Z,88.60
2019-03-02T07:24:01.114Z,92.20
2019-03-02T07:25:01.434Z,92.10
2019-03-02T07:26:01.096Z,85.10
2019-03-02T07:27:01.092Z,84.90
2019-03-02T07:28:01.960Z,84.30
2019-03-02T07:29:01.082Z,83.50
2019-03-02T07:30:01.058Z,83.80
2019-03-02T07:31:01.066Z,86.30
2019-03-02T07:32:01.043Z,85.30
2019-03-02T07:33:01.073Z,88.90
2019-03-02T07:34:01.030Z,80.90
2019-03-02T07:35:01.036Z,90.20
2019-03-02T07:36:01.242Z,87.80
2019-03-02T07:37:01.043Z,84.10
2019-03-02T07:38:01.241Z,81.50
2019-03-02T07:39:01.004Z,85.20
2019-03-02T07:40:00.996Z,87.90
2019-03-02T07:41:01.013Z,87.80
2019-03-02T07:42:00.985Z,89.60
2019-03-02T07:43:00.985Z,89.30
2019-03-02T07:44:00.984Z,86.40
2019-03-02T07:45:00.968Z,85.10
2019-03-02T07:46:01.170Z,84.20
2019-03-02T07:47:00.968Z,88.40
2019-03-02T07:48:01.603Z,90.50
2019-03-02T07:49:00.966Z,85.30
2019-03-02T07:50:00.950Z,87.60
2019-03-02T07:51:04.762Z,86.50
2019-03-02T07:52:00.931Z,87.80
2019-03-02T07:53:00.921Z,80.40
2019-03-02T07:54:02.136Z,84.20
2019-03-02T07:55:00.915Z,81.90
2019-03-02T07:56:00.910Z,79.90
2019-03-02T07:57:00.900Z,82.10
2019-03-02T07:58:00.907Z,84.30
2019-03-02T07:59:00.894Z,87.60
2019-03-02T08:00:02.281Z,76.90
2019-03-02T08:01:00.866Z,74.30
2019-03-02T08:02:01.066Z,81.30
2019-03-02T08:03:00.856Z,77.10
2019-03-02T08:04:01.056Z,78.10
2019-03-02T08:05:00.855Z,75.40
2019-03-02T08:06:01.329Z,71.90
2019-03-02T08:07:01.426Z,77.80
2019-03-02T08:08:00.824Z,70.30
2019-03-02T08:09:00.812Z,73.90
2019-03-02T08:10:02.106Z,78.40
2019-03-02T08:11:00.821Z,73.10
2019-03-02T08:12:00.801Z,80.30
2019-03-02T08:13:01.679Z,74.10
2019-03-02T08:14:00.799Z,72.70
2019-03-02T08:15:00.777Z,76.60
2019-03-02T08:16:03.220Z,76.20
2019-03-02T08:17:00.767Z,74.10
2019-03-02T08:18:00.770Z,70.80
2019-03-02T08:19:03.971Z,70.20
2019-03-02T08:20:00.769Z,71.20
2019-03-02T08:21:01.719Z,70.00
2019-03-02T08:22:00.733Z,70.70
2019-03-02T08:23:00.736Z,68.70
2019-03-02T08:24:00.733Z,68.30
2019-03-02T08:25:00.922Z,66.70
2019-03-02T08:26:00.712Z,68.00
2019-03-02T08:27:00.714Z,72.50
2019-03-02T08:28:00.705Z,70.80
2019-03-02T08:29:00.699Z,67.30
2019-03-02T08:30:00.696Z,64.90
2019-03-02T08:31:00.695Z,65.30
2019-03-02T08:32:00.690Z,63.40
2019-03-02T08:33:00.659Z,64.90
2019-03-02T08:34:00.655Z,64.10
2019-03-02T08:35:00.663Z,63.30
2019-03-02T08:36:00.649Z,65.30
2019-03-02T08:37:00.635Z,63.10
2019-03-02T08:38:01.654Z,56.40
2019-03-02T08:39:00.629Z,65.00
2019-03-02T08:40:02.024Z,64.30
2019-03-02T08:41:01.776Z,60.60
2019-03-02T08:42:00.604Z,62.50
2019-03-02T08:43:00.614Z,59.20
2019-03-02T08:44:00.603Z,60.70
2019-03-02T08:45:00.615Z,61.00
2019-03-02T08:46:03.643Z,65.00
2019-03-02T08:47:00.591Z,59.10
2019-03-02T08:48:00.565Z,59.50
2019-03-02T08:49:02.899Z,58.30
2019-03-02T08:50:00.551Z,57.80
2019-03-02T08:51:00.565Z,56.40
2019-03-02T08:52:00.553Z,53.90
2019-03-02T08:53:00.555Z,61.40
2019-03-02T08:54:00.531Z,59.20
2019-03-02T08:55:00.566Z,60.90
2019-03-02T08:56:00.545Z,58.50
2019-03-02T08:57:00.543Z,56.80
2019-03-02T08:58:00.514Z,57.20
2019-03-02T08:59:01.917Z,60.70
2019-03-02T09:00:00.497Z,55.30
2019-03-02T09:01:00.695Z,61.10
2019-03-02T09:02:00.486Z,55.50
2019-03-02T09:03:00.596Z,59.40
2019-03-02T09:04:00.475Z,58.60
2019-03-02T09:05:00.460Z,55.10
2019-03-02T09:06:00.457Z,56.20
2019-03-02T09:07:00.450Z,59.60
2019-03-02T09:08:00.445Z,57.80
2019-03-02T09:09:00.443Z,55.70
2019-03-02T09:10:00.434Z,54.50
2019-03-02T09:11:00.424Z,59.20
2019-03-02T09:12:00.426Z,53.90
2019-03-02T09:13:00.418Z,54.30
2019-03-02T09:14:00.409Z,56.00
2019-03-02T09:15:00.396Z,57.20
2019-03-02T09:16:01.413Z,53.70
2019-03-02T09:17:00.394Z,56.40
2019-03-02T09:18:00.392Z,58.10
2019-03-02T09:19:00.390Z,54.80
2019-03-02T09:20:00.771Z,55.10
2019-03-02T09:21:00.368Z,51.50
2019-03-02T09:22:00.362Z,51.90
2019-03-02T09:23:01.538Z,52.80
2019-03-02T09:24:00.352Z,53.50
2019-03-02T09:25:00.341Z,53.20
2019-03-02T09:26:01.053Z,56.70
2019-03-02T09:27:00.841Z,51.20
2019-03-02T09:28:00.335Z,53.30
2019-03-02T09:29:00.335Z,52.80
2019-03-02T09:30:00.423Z,52.00
2019-03-02T09:31:01.991Z,53.70
2019-03-02T09:32:00.311Z,54.10
2019-03-02T09:33:00.290Z,50.40
2019-03-02T09:34:01.142Z,53.60
2019-03-02T09:35:00.334Z,55.10
2019-03-02T09:36:00.492Z,53.80
2019-03-02T09:37:03.826Z,50.10
2019-03-02T09:38:00.262Z,55.40
2019-03-02T09:39:00.267Z,52.30
2019-03-02T09:40:00.256Z,54.40
2019-03-02T09:41:00.259Z,54.30
2019-03-02T09:42:01.459Z,51.40
2019-03-02T09:43:00.254Z,53.90
2019-03-02T09:44:01.709Z,54.50
2019-03-02T09:45:00.341Z,53.00
2019-03-02T09:46:00.207Z,54.00
2019-03-02T09:47:00.420Z,51.70
2019-03-02T09:48:00.212Z,55.10
2019-03-02T09:49:00.765Z,51.80
2019-03-02T09:50:00.317Z,54.50
2019-03-02T09:51:00.200Z,56.10
2019-03-02T09:52:00.192Z,55.30
2019-03-02T09:53:00.197Z,56.60
2019-03-02T09:54:00.190Z,56.80
2019-03-02T09:55:00.254Z,55.80
2019-03-02T09:56:00.358Z,53.50
2019-03-02T09:57:00.158Z,52.70
2019-03-02T09:58:00.221Z,55.40
2019-03-02T09:59:01.538Z,52.20
2019-03-02T10:00:00.353Z,54.80
2019-03-02T10:01:01.155Z,54.40
2019-03-02T10:02:00.128Z,56.30
2019-03-02T10:03:00.141Z,52.80
2019-03-02T10:04:03.046Z,49.50
2019-03-02T10:05:00.160Z,50.40
2019-03-02T10:06:00.108Z,48.10
2019-03-02T10:07:02.069Z,49.70
2019-03-02T10:08:00.084Z,46.70
2019-03-02T10:09:00.287Z,48.00
2019-03-02T10:10:00.293Z,47.40
2019-03-02T10:11:02.630Z,50.70
2019-03-02T10:12:00.061Z,51.20
2019-03-02T10:13:00.254Z,51.20
2019-03-02T10:14:00.046Z,47.60
2019-03-02T10:15:00.801Z,46.60
2019-03-02T10:16:00.659Z,46.70
2019-03-02T10:17:00.028Z,44.60
2019-03-02T10:18:00.032Z,43.50
2019-03-02T10:19:00.227Z,41.40
2019-03-02T10:20:00.981Z,45.40
2019-03-02T10:21:00.021Z,46.90
2019-03-02T10:22:00.008Z,43.70
2019-03-02T10:23:02.080Z,44.50
2019-03-02T10:24:00.226Z,45.40
2019-03-02T10:24:59.988Z,45.20
2019-03-02T10:25:59.985Z,43.40
2019-03-02T10:26:59.982Z,45.60
2019-03-02T10:27:59.980Z,40.20
2019-03-02T10:29:00.045Z,40.30
2019-03-02T10:30:00.266Z,44.10
2019-03-02T10:31:02.606Z,42.50
2019-03-02T10:31:59.970Z,43.00
2019-03-02T10:32:59.949Z,42.90
2019-03-02T10:34:02.754Z,43.50
2019-03-02T10:34:59.927Z,41.90
2019-03-02T10:36:00.125Z,41.40
2019-03-02T10:37:00.132Z,41.10
2019-03-02T10:37:59.915Z,44.30
2019-03-02T10:38:59.930Z,39.70
2019-03-02T10:39:59.914Z,41.90
2019-03-02T10:40:59.894Z,41.60
2019-03-02T10:42:00.625Z,42.20
2019-03-02T10:42:59.889Z,41.60
2019-03-02T10:43:59.893Z,39.50
2019-03-02T10:44:59.898Z,42.60
2019-03-02T10:45:59.864Z,40.90
2019-03-02T10:46:59.864Z,41.10
2019-03-02T10:48:00.068Z,41.00
2019-03-02T10:48:59.857Z,41.10
2019-03-02T10:49:59.850Z,42.10
2019-03-02T10:51:02.309Z,39.40
2019-03-02T10:51:59.833Z,42.00
2019-03-02T10:52:59.837Z,41.80
2019-03-02T10:54:00.685Z,40.30
2019-03-02T10:55:00.017Z,41.40
2019-03-02T10:56:00.015Z,39.90
2019-03-02T10:57:01.017Z,39.80
2019-03-02T10:58:02.274Z,39.20
2019-03-02T10:58:59.805Z,38.00
2019-03-02T10:59:59.790Z,40.80
2019-03-02T11:01:03.325Z,42.90
2019-03-02T11:01:59.809Z,40.70
2019-03-02T11:02:59.771Z,39.70
2019-03-02T11:03:59.766Z,39.80
2019-03-02T11:04:59.763Z,39.60
2019-03-02T11:05:59.971Z,38.00
2019-03-02T11:06:59.746Z,41.10
2019-03-02T11:07:59.742Z,39.10
2019-03-02T11:09:04.058Z,38.70
2019-03-02T11:10:00.642Z,37.60
2019-03-02T11:10:59.749Z,39.00
2019-03-02T11:12:02.784Z,40.70
2019-03-02T11:12:59.729Z,38.70
2019-03-02T11:13:59.720Z,42.00
2019-03-02T11:14:59.717Z,40.90
2019-03-02T11:15:59.704Z,40.00
2019-03-02T11:17:01.542Z,36.00
2019-03-02T11:17:59.858Z,38.50
2019-03-02T11:18:59.686Z,36.70
2019-03-02T11:19:59.679Z,39.60
2019-03-02T11:21:00.083Z,38.20
2019-03-02T11:21:59.876Z,38.50
2019-03-02T11:22:59.657Z,36.90
2019-03-02T11:23:59.658Z,40.30
2019-03-02T11:24:59.657Z,37.40
2019-03-02T11:25:59.651Z,40.30
2019-03-02T11:26:59.853Z,39.90
2019-03-02T11:27:59.649Z,38.60
2019-03-02T11:28:59.650Z,39.30
2019-03-02T11:29:59.646Z,42.00
2019-03-02T11:30:59.827Z,40.10
2019-03-02T11:31:59.820Z,38.10
2019-03-02T11:32:59.600Z,36.60
2019-03-02T11:33:59.890Z,38.80
2019-03-02T11:34:59.801Z,36.80
2019-03-02T11:35:59.597Z,36.90
2019-03-02T11:36:59.585Z,37.90
2019-03-02T11:38:01.499Z,39.40
2019-03-02T11:38:59.588Z,36.60
2019-03-02T11:39:59.571Z,38.50
2019-03-02T11:40:59.572Z,36.40
2019-03-02T11:41:59.563Z,39.10
2019-03-02T11:42:59.557Z,40.80
2019-03-02T11:43:59.572Z,39.00
2019-03-02T11:44:59.545Z,39.10
2019-03-02T11:45:59.539Z,35.20
2019-03-02T11:46:59.557Z,37.80
2019-03-02T11:47:59.526Z,35.70
2019-03-02T11:48:59.524Z,36.60
2019-03-02T11:49:59.721Z,36.80
2019-03-02T11:50:59.512Z,37.90
2019-03-02T11:52:02.058Z,36.20
2019-03-02T11:52:59.700Z,33.20
2019-03-02T11:53:59.699Z,33.20
2019-03-02T11:55:00.912Z,34.90
2019-03-02T11:56:02.969Z,35.50
2019-03-02T11:56:59.487Z,35.90
2019-03-02T11:57:59.486Z,35.10
2019-03-02T11:58:59.482Z,34.60
2019-03-02T11:59:59.825Z,37.80
2019-03-02T12:00:59.477Z,35.40
2019-03-02T12:01:59.684Z,33.30
2019-03-02T12:03:02.443Z,37.20
2019-03-02T12:03:59.662Z,36.00
2019-03-02T12:04:59.453Z,35.40
2019-03-02T12:06:05.194Z,33.50
2019-03-02T12:06:59.428Z,33.90
2019-03-02T12:07:59.441Z,34.10
2019-03-02T12:09:01.195Z,35.50
2019-03-02T12:10:01.037Z,34.30
2019-03-02T12:10:59.410Z,33.30
2019-03-02T12:11:59.421Z,33.60
2019-03-02T12:12:59.400Z,33.00
2019-03-02T12:13:59.403Z,33.90
2019-03-02T12:14:59.407Z,32.10
2019-03-02T12:16:01.547Z,31.30
2019-03-02T12:17:00.284Z,31.40
2019-03-02T12:17:59.400Z,32.90
2019-03-02T12:18:59.380Z,33.40
2019-03-02T12:20:02.637Z,34.40
2019-03-02T12:20:59.366Z,36.10
2019-03-02T12:21:59.353Z,32.10
2019-03-02T12:22:59.561Z,34.80
2019-03-02T12:23:59.548Z,35.50
2019-03-02T12:24:59.630Z,31.90
2019-03-02T12:25:59.336Z,36.50
2019-03-02T12:26:59.341Z,34.00
2019-03-02T12:28:00.392Z,34.90
2019-03-02T12:28:59.521Z,36.20
2019-03-02T12:29:59.839Z,36.30
2019-03-02T12:30:59.326Z,32.20
2019-03-02T12:31:59.329Z,34.20
2019-03-02T12:32:59.328Z,33.90
2019-03-02T12:33:59.293Z,32.30
2019-03-02T12:34:59.296Z,32.40
2019-03-02T12:35:59.280Z,32.20
2019-03-02T12:36:59.284Z,34.30
2019-03-02T12:37:59.282Z,33.10
2019-03-02T12:38:59.264Z,31.20
2019-03-02T12:40:03.092Z,34.10
2019-03-02T12:40:59.272Z,31.40
2019-03-02T12:41:59.262Z,33.30
2019-03-02T12:42:59.242Z,33.10
2019-03-02T12:43:59.266Z,32.20
2019-03-02T12:44:59.256Z,30.60
2019-03-02T12:45:59.252Z,31.80
2019-03-02T12:46:59.607Z,29.30
2019-03-02T12:47:59.243Z,31.10
2019-03-02T12:48:59.225Z,28.60
2019-03-02T12:49:59.252Z,28.70